sensor_id;sensor_type;location;lat;lon;timestamp;P1;durP1;ratioP1;P2;durP2;ratioP2
12222;SDS011;6174;49.058;8.524;2023-02-24T05:00:15;41.83;;;25.63;;
12222;SDS011;6174;49.058;8.524;2023-02-24T05:02:50;45.60;;;26.27;;
12222;SDS011;6174;49.058;8.524;2023-02-24T05:05:19;42.73;;;24.83;;
12222;SDS011;6174;49.058;8.524;2023-02-24T05:07:49;43.13;;;25.73;;
12222;SDS011;6174;49.058;8.524;2023-02-24T05:10:16;40.20;;;25.83;;
12222;SDS011;6174;49.058;8.524;2023-02-24T05:12:44;41.60;;;25.40;;
12222;SDS011;6174;49.058;8.524;2023-02-24T05:17:40;36.93;;;24.33;;
12222;SDS011;6174;49.058;8.524;2023-02-24T05:20:07;39.57;;;24.33;;
12222;SDS011;6174;49.058;8.524;2023-02-24T05:22:52;38.10;;;25.20;;
12222;SDS011;6174;49.058;8.524;2023-02-24T05:25:20;38.37;;;23.23;;
12222;SDS011;6174;49.058;8.524;2023-02-24T05:27:49;39.43;;;24.20;;
12222;SDS011;6174;49.058;8.524;2023-02-24T05:30:16;40.20;;;24.90;;
12222;SDS011;6174;49.058;8.524;2023-02-24T05:32:44;39.00;;;24.60;;
12222;SDS011;6174;49.058;8.524;2023-02-24T05:35:11;38.90;;;24.63;;
12222;SDS011;6174;49.058;8.524;2023-02-24T05:37:38;39.87;;;26.03;;
12222;SDS011;6174;49.058;8.524;2023-02-24T05:40:08;38.13;;;24.07;;
12222;SDS011;6174;49.058;8.524;2023-02-24T05:42:37;42.13;;;23.93;;
12222;SDS011;6174;49.058;8.524;2023-02-24T05:45:07;38.07;;;24.13;;
12222;SDS011;6174;49.058;8.524;2023-02-24T05:47:35;43.03;;;27.13;;
12222;SDS011;6174;49.058;8.524;2023-02-24T05:50:03;39.03;;;24.43;;
12222;SDS011;6174;49.058;8.524;2023-02-24T05:52:33;36.63;;;23.57;;
12222;SDS011;6174;49.058;8.524;2023-02-24T05:55:01;38.17;;;23.93;;
12222;SDS011;6174;49.058;8.524;2023-02-24T05:57:31;36.07;;;22.43;;
12222;SDS011;6174;49.058;8.524;2023-02-24T05:59:59;40.63;;;24.37;;
12222;SDS011;6174;49.058;8.524;2023-02-24T06:02:35;37.83;;;24.20;;
12222;SDS011;6174;49.058;8.524;2023-02-24T06:05:04;40.43;;;25.03;;
12222;SDS011;6174;49.058;8.524;2023-02-24T06:07:32;40.23;;;24.73;;
12222;SDS011;6174;49.058;8.524;2023-02-24T06:10:00;36.70;;;24.93;;
12222;SDS011;6174;49.058;8.524;2023-02-24T06:12:33;39.80;;;24.73;;
12222;SDS011;6174;49.058;8.524;2023-02-24T06:15:04;38.90;;;24.17;;
12222;SDS011;6174;49.058;8.524;2023-02-24T06:17:31;39.30;;;24.73;;
12222;SDS011;6174;49.058;8.524;2023-02-24T06:19:58;40.37;;;25.50;;
12222;SDS011;6174;49.058;8.524;2023-02-24T06:22:26;35.93;;;23.90;;
12222;SDS011;6174;49.058;8.524;2023-02-24T06:24:53;39.20;;;23.90;;
12222;SDS011;6174;49.058;8.524;2023-02-24T06:27:21;36.93;;;23.97;;
12222;SDS011;6174;49.058;8.524;2023-02-24T06:29:50;38.23;;;24.23;;
12222;SDS011;6174;49.058;8.524;2023-02-24T06:32:18;38.97;;;24.80;;
12222;SDS011;6174;49.058;8.524;2023-02-24T06:34:47;39.27;;;24.03;;
12222;SDS011;6174;49.058;8.524;2023-02-24T06:37:16;39.90;;;24.57;;
12222;SDS011;6174;49.058;8.524;2023-02-24T06:39:44;40.10;;;25.67;;
12222;SDS011;6174;49.058;8.524;2023-02-24T06:42:13;41.50;;;26.80;;
12222;SDS011;6174;49.058;8.524;2023-02-24T06:44:40;44.97;;;26.17;;
12222;SDS011;6174;49.058;8.524;2023-02-24T06:47:09;36.40;;;23.50;;
12222;SDS011;6174;49.058;8.524;2023-02-24T06:49:38;40.10;;;25.30;;
12222;SDS011;6174;49.058;8.524;2023-02-24T06:52:05;39.97;;;24.80;;
12222;SDS011;6174;49.058;8.524;2023-02-24T06:54:32;36.13;;;23.57;;
12222;SDS011;6174;49.058;8.524;2023-02-24T06:57:01;39.83;;;25.27;;
12222;SDS011;6174;49.058;8.524;2023-02-24T06:59:29;41.40;;;25.57;;
12222;SDS011;6174;49.058;8.524;2023-02-24T07:01:57;39.50;;;24.93;;
12222;SDS011;6174;49.058;8.524;2023-02-24T07:04:25;39.50;;;26.17;;
12222;SDS011;6174;49.058;8.524;2023-02-24T07:06:53;38.70;;;23.83;;
12222;SDS011;6174;49.058;8.524;2023-02-24T07:09:22;39.37;;;23.67;;
12222;SDS011;6174;49.058;8.524;2023-02-24T07:11:51;36.87;;;23.50;;
12222;SDS011;6174;49.058;8.524;2023-02-24T07:14:22;39.17;;;23.80;;
12222;SDS011;6174;49.058;8.524;2023-02-24T07:16:51;36.57;;;22.73;;
12222;SDS011;6174;49.058;8.524;2023-02-24T07:19:19;34.60;;;23.57;;
12222;SDS011;6174;49.058;8.524;2023-02-24T07:21:47;40.47;;;25.97;;
12222;SDS011;6174;49.058;8.524;2023-02-24T07:24:17;42.03;;;24.23;;
12222;SDS011;6174;49.058;8.524;2023-02-24T07:26:56;38.70;;;25.53;;
12222;SDS011;6174;49.058;8.524;2023-02-24T07:29:26;41.03;;;24.93;;
12222;SDS011;6174;49.058;8.524;2023-02-24T07:31:56;40.23;;;24.77;;
12222;SDS011;6174;49.058;8.524;2023-02-24T07:34:27;40.10;;;24.53;;
12222;SDS011;6174;49.058;8.524;2023-02-24T07:36:54;35.27;;;23.17;;
12222;SDS011;6174;49.058;8.524;2023-02-24T07:39:22;39.33;;;23.87;;
12222;SDS011;6174;49.058;8.524;2023-02-24T07:41:49;35.33;;;23.27;;
12222;SDS011;6174;49.058;8.524;2023-02-24T07:44:19;35.23;;;22.40;;
12222;SDS011;6174;49.058;8.524;2023-02-24T07:46:48;35.70;;;22.33;;
12222;SDS011;6174;49.058;8.524;2023-02-24T07:49:17;35.53;;;21.90;;
12222;SDS011;6174;49.058;8.524;2023-02-24T07:51:47;34.30;;;22.47;;
12222;SDS011;6174;49.058;8.524;2023-02-24T07:54:17;32.97;;;22.47;;
12222;SDS011;6174;49.058;8.524;2023-02-24T07:56:45;38.10;;;22.87;;
12222;SDS011;6174;49.058;8.524;2023-02-24T07:59:20;35.97;;;23.13;;
12222;SDS011;6174;49.058;8.524;2023-02-24T08:01:49;37.40;;;23.23;;
12222;SDS011;6174;49.058;8.524;2023-02-24T08:04:20;37.47;;;23.97;;
12222;SDS011;6174;49.058;8.524;2023-02-24T08:06:49;37.90;;;24.17;;
12222;SDS011;6174;49.058;8.524;2023-02-24T08:09:20;40.67;;;25.83;;
12222;SDS011;6174;49.058;8.524;2023-02-24T08:12:10;39.53;;;23.87;;
12222;SDS011;6174;49.058;8.524;2023-02-24T08:14:41;38.60;;;23.87;;
12222;SDS011;6174;49.058;8.524;2023-02-24T08:17:16;37.03;;;23.53;;
12222;SDS011;6174;49.058;8.524;2023-02-24T08:19:45;37.23;;;23.43;;
12222;SDS011;6174;49.058;8.524;2023-02-24T08:22:13;37.50;;;23.57;;
12222;SDS011;6174;49.058;8.524;2023-02-24T08:24:49;40.30;;;23.43;;
12222;SDS011;6174;49.058;8.524;2023-02-24T08:27:18;39.73;;;23.70;;
12222;SDS011;6174;49.058;8.524;2023-02-24T08:29:46;36.57;;;22.27;;
12222;SDS011;6174;49.058;8.524;2023-02-24T08:32:25;33.80;;;21.87;;
12222;SDS011;6174;49.058;8.524;2023-02-24T08:34:57;35.90;;;22.97;;
12222;SDS011;6174;49.058;8.524;2023-02-24T08:37:27;34.00;;;21.47;;
12222;SDS011;6174;49.058;8.524;2023-02-24T08:39:58;34.17;;;21.60;;
12222;SDS011;6174;49.058;8.524;2023-02-24T08:42:29;34.80;;;21.47;;
12222;SDS011;6174;49.058;8.524;2023-02-24T08:44:59;34.67;;;23.23;;
12222;SDS011;6174;49.058;8.524;2023-02-24T08:47:27;34.37;;;21.50;;
12222;SDS011;6174;49.058;8.524;2023-02-24T08:50:02;36.27;;;21.33;;
12222;SDS011;6174;49.058;8.524;2023-02-24T08:52:31;38.40;;;21.40;;
12222;SDS011;6174;49.058;8.524;2023-02-24T08:54:59;34.70;;;20.97;;
12222;SDS011;6174;49.058;8.524;2023-02-24T08:57:26;36.87;;;21.30;;
12222;SDS011;6174;49.058;8.524;2023-02-24T08:59:53;33.17;;;21.27;;
12222;SDS011;6174;49.058;8.524;2023-02-24T09:02:23;35.03;;;20.47;;
12222;SDS011;6174;49.058;8.524;2023-02-24T09:04:56;29.33;;;19.17;;
12222;SDS011;6174;49.058;8.524;2023-02-24T09:07:25;32.00;;;19.60;;
12222;SDS011;6174;49.058;8.524;2023-02-24T09:09:54;30.87;;;19.83;;
12222;SDS011;6174;49.058;8.524;2023-02-24T09:12:22;31.80;;;18.93;;
12222;SDS011;6174;49.058;8.524;2023-02-24T09:14:50;31.93;;;19.23;;
12222;SDS011;6174;49.058;8.524;2023-02-24T09:17:22;35.80;;;20.93;;
12222;SDS011;6174;49.058;8.524;2023-02-24T09:20:15;34.23;;;18.73;;
12222;SDS011;6174;49.058;8.524;2023-02-24T09:23:20;32.47;;;19.77;;
12222;SDS011;6174;49.058;8.524;2023-02-24T09:25:53;30.70;;;18.47;;
12222;SDS011;6174;49.058;8.524;2023-02-24T09:28:21;31.93;;;18.70;;
12222;SDS011;6174;49.058;8.524;2023-02-24T09:30:49;34.90;;;20.73;;
12222;SDS011;6174;49.058;8.524;2023-02-24T09:33:19;31.33;;;18.77;;
12222;SDS011;6174;49.058;8.524;2023-02-24T09:35:50;32.10;;;19.13;;
12222;SDS011;6174;49.058;8.524;2023-02-24T09:38:27;29.43;;;19.13;;
12222;SDS011;6174;49.058;8.524;2023-02-24T09:41:29;28.77;;;18.60;;
12222;SDS011;6174;49.058;8.524;2023-02-24T09:44:17;28.47;;;18.57;;
12222;SDS011;6174;49.058;8.524;2023-02-24T09:46:50;29.27;;;19.97;;
12222;SDS011;6174;49.058;8.524;2023-02-24T09:49:23;29.53;;;19.50;;
12222;SDS011;6174;49.058;8.524;2023-02-24T09:52:06;28.57;;;18.60;;
12222;SDS011;6174;49.058;8.524;2023-02-24T09:54:41;30.87;;;18.43;;
12222;SDS011;6174;49.058;8.524;2023-02-24T09:57:29;29.37;;;18.23;;
12222;SDS011;6174;49.058;8.524;2023-02-24T10:00:03;28.87;;;19.10;;
12222;SDS011;6174;49.058;8.524;2023-02-24T10:02:51;29.97;;;18.67;;
12222;SDS011;6174;49.058;8.524;2023-02-24T10:05:28;27.57;;;18.07;;
12222;SDS011;6174;49.058;8.524;2023-02-24T10:08:03;25.90;;;17.27;;
12222;SDS011;6174;49.058;8.524;2023-02-24T10:10:38;26.50;;;17.63;;
12222;SDS011;6174;49.058;8.524;2023-02-24T10:13:24;27.07;;;18.13;;
12222;SDS011;6174;49.058;8.524;2023-02-24T10:15:57;28.37;;;18.17;;
12222;SDS011;6174;49.058;8.524;2023-02-24T10:18:30;24.87;;;17.20;;
12222;SDS011;6174;49.058;8.524;2023-02-24T10:21:03;29.60;;;19.00;;
12222;SDS011;6174;49.058;8.524;2023-02-24T10:23:45;26.77;;;18.33;;
12222;SDS011;6174;49.058;8.524;2023-02-24T10:26:24;26.90;;;19.33;;
12222;SDS011;6174;49.058;8.524;2023-02-24T10:29:10;27.63;;;18.63;;
12222;SDS011;6174;49.058;8.524;2023-02-24T10:31:50;28.50;;;19.23;;
12222;SDS011;6174;49.058;8.524;2023-02-24T10:34:25;30.63;;;20.73;;
12222;SDS011;6174;49.058;8.524;2023-02-24T10:36:56;29.13;;;19.20;;
12222;SDS011;6174;49.058;8.524;2023-02-24T10:39:26;27.70;;;18.30;;
12222;SDS011;6174;49.058;8.524;2023-02-24T10:41:58;27.17;;;18.10;;
12222;SDS011;6174;49.058;8.524;2023-02-24T10:44:39;27.73;;;18.47;;
12222;SDS011;6174;49.058;8.524;2023-02-24T10:47:16;29.63;;;18.43;;
12222;SDS011;6174;49.058;8.524;2023-02-24T10:49:45;26.83;;;18.13;;
12222;SDS011;6174;49.058;8.524;2023-02-24T10:52:22;28.77;;;18.20;;
12222;SDS011;6174;49.058;8.524;2023-02-24T10:55:18;27.00;;;17.83;;
12222;SDS011;6174;49.058;8.524;2023-02-24T10:57:53;24.23;;;16.70;;
12222;SDS011;6174;49.058;8.524;2023-02-24T11:00:36;26.90;;;18.07;;
12222;SDS011;6174;49.058;8.524;2023-02-24T11:03:25;27.63;;;17.43;;
12222;SDS011;6174;49.058;8.524;2023-02-24T11:06:15;25.47;;;17.10;;
12222;SDS011;6174;49.058;8.524;2023-02-24T11:08:57;23.73;;;16.13;;
12222;SDS011;6174;49.058;8.524;2023-02-24T11:11:44;24.40;;;16.57;;
12222;SDS011;6174;49.058;8.524;2023-02-24T11:14:30;23.53;;;16.87;;
12222;SDS011;6174;49.058;8.524;2023-02-24T11:17:21;25.60;;;16.53;;
12222;SDS011;6174;49.058;8.524;2023-02-24T11:19:54;27.23;;;17.10;;
12222;SDS011;6174;49.058;8.524;2023-02-24T11:22:25;24.63;;;16.63;;
12222;SDS011;6174;49.058;8.524;2023-02-24T11:24:58;21.47;;;15.17;;
12222;SDS011;6174;49.058;8.524;2023-02-24T11:27:32;21.37;;;15.90;;
12222;SDS011;6174;49.058;8.524;2023-02-24T11:30:02;22.77;;;14.93;;
12222;SDS011;6174;49.058;8.524;2023-02-24T11:32:51;23.37;;;15.87;;
12222;SDS011;6174;49.058;8.524;2023-02-24T11:35:26;21.60;;;14.50;;
12222;SDS011;6174;49.058;8.524;2023-02-24T11:38:00;24.17;;;15.93;;
12222;SDS011;6174;49.058;8.524;2023-02-24T11:40:36;22.43;;;16.03;;
12222;SDS011;6174;49.058;8.524;2023-02-24T11:43:09;23.90;;;16.73;;
12222;SDS011;6174;49.058;8.524;2023-02-24T11:45:43;25.37;;;17.40;;
12222;SDS011;6174;49.058;8.524;2023-02-24T11:48:14;26.20;;;17.57;;
12222;SDS011;6174;49.058;8.524;2023-02-24T11:50:45;23.90;;;15.60;;
12222;SDS011;6174;49.058;8.524;2023-02-24T11:53:22;26.87;;;17.47;;
12222;SDS011;6174;49.058;8.524;2023-02-24T11:55:54;24.93;;;17.77;;
12222;SDS011;6174;49.058;8.524;2023-02-24T11:58:29;27.10;;;17.77;;
12222;SDS011;6174;49.058;8.524;2023-02-24T12:01:05;27.73;;;18.30;;
12222;SDS011;6174;49.058;8.524;2023-02-24T12:03:39;26.10;;;18.03;;
12222;SDS011;6174;49.058;8.524;2023-02-24T12:06:15;25.43;;;17.83;;
12222;SDS011;6174;49.058;8.524;2023-02-24T12:08:48;26.70;;;18.50;;
12222;SDS011;6174;49.058;8.524;2023-02-24T12:11:20;27.37;;;19.20;;
12222;SDS011;6174;49.058;8.524;2023-02-24T12:13:58;27.70;;;18.00;;
12222;SDS011;6174;49.058;8.524;2023-02-24T12:16:34;22.33;;;15.67;;
12222;SDS011;6174;49.058;8.524;2023-02-24T12:19:05;22.53;;;15.43;;
12222;SDS011;6174;49.058;8.524;2023-02-24T12:21:42;23.73;;;16.23;;
12222;SDS011;6174;49.058;8.524;2023-02-24T12:24:14;26.50;;;16.57;;
12222;SDS011;6174;49.058;8.524;2023-02-24T12:26:43;26.97;;;17.43;;
12222;SDS011;6174;49.058;8.524;2023-02-24T12:29:34;28.30;;;17.67;;
12222;SDS011;6174;49.058;8.524;2023-02-24T12:32:12;24.67;;;17.03;;
12222;SDS011;6174;49.058;8.524;2023-02-24T12:34:55;28.53;;;17.73;;
12222;SDS011;6174;49.058;8.524;2023-02-24T12:37:41;21.73;;;15.90;;
12222;SDS011;6174;49.058;8.524;2023-02-24T12:40:23;24.37;;;16.40;;
12222;SDS011;6174;49.058;8.524;2023-02-24T12:42:59;28.43;;;18.63;;
12222;SDS011;6174;49.058;8.524;2023-02-24T12:45:39;23.60;;;17.23;;
12222;SDS011;6174;49.058;8.524;2023-02-24T12:48:16;26.60;;;17.87;;
12222;SDS011;6174;49.058;8.524;2023-02-24T12:50:53;25.17;;;17.13;;
12222;SDS011;6174;49.058;8.524;2023-02-24T12:53:27;24.73;;;17.37;;
12222;SDS011;6174;49.058;8.524;2023-02-24T12:56:03;23.90;;;16.70;;
12222;SDS011;6174;49.058;8.524;2023-02-24T12:58:38;24.30;;;16.67;;
12222;SDS011;6174;49.058;8.524;2023-02-24T13:01:12;23.10;;;16.80;;
12222;SDS011;6174;49.058;8.524;2023-02-24T13:03:55;25.27;;;16.93;;
12222;SDS011;6174;49.058;8.524;2023-02-24T13:06:31;23.30;;;17.20;;
12222;SDS011;6174;49.058;8.524;2023-02-24T13:09:08;27.43;;;16.60;;
12222;SDS011;6174;49.058;8.524;2023-02-24T13:11:42;25.27;;;16.63;;
12222;SDS011;6174;49.058;8.524;2023-02-24T13:14:16;26.07;;;16.93;;
12222;SDS011;6174;49.058;8.524;2023-02-24T13:17:01;24.43;;;15.90;;
12222;SDS011;6174;49.058;8.524;2023-02-24T13:19:29;24.43;;;16.50;;
12222;SDS011;6174;49.058;8.524;2023-02-24T13:21:58;25.07;;;17.47;;
12222;SDS011;6174;49.058;8.524;2023-02-24T13:24:30;24.40;;;16.90;;
12222;SDS011;6174;49.058;8.524;2023-02-24T13:27:03;25.03;;;17.17;;
12222;SDS011;6174;49.058;8.524;2023-02-24T13:29:45;24.57;;;16.33;;
12222;SDS011;6174;49.058;8.524;2023-02-24T13:32:24;22.47;;;15.73;;
12222;SDS011;6174;49.058;8.524;2023-02-24T13:34:54;21.87;;;16.50;;
12222;SDS011;6174;49.058;8.524;2023-02-24T13:37:25;26.67;;;17.40;;
12222;SDS011;6174;49.058;8.524;2023-02-24T13:39:53;23.03;;;16.90;;
12222;SDS011;6174;49.058;8.524;2023-02-24T13:42:22;24.83;;;16.97;;
12222;SDS011;6174;49.058;8.524;2023-02-24T13:44:51;24.60;;;15.97;;
12222;SDS011;6174;49.058;8.524;2023-02-24T13:47:24;26.37;;;17.30;;
12222;SDS011;6174;49.058;8.524;2023-02-24T13:50:23;27.10;;;17.30;;
12222;SDS011;6174;49.058;8.524;2023-02-24T13:53:04;22.30;;;16.03;;
12222;SDS011;6174;49.058;8.524;2023-02-24T13:55:47;23.30;;;16.47;;
12222;SDS011;6174;49.058;8.524;2023-02-24T13:58:34;24.17;;;16.93;;
12222;SDS011;6174;49.058;8.524;2023-02-24T14:01:17;23.33;;;15.93;;
12222;SDS011;6174;49.058;8.524;2023-02-24T14:03:48;24.27;;;17.73;;
12222;SDS011;6174;49.058;8.524;2023-02-24T14:06:29;25.33;;;17.63;;
12222;SDS011;6174;49.058;8.524;2023-02-24T14:08:58;25.30;;;17.20;;
12222;SDS011;6174;49.058;8.524;2023-02-24T14:11:28;23.90;;;17.40;;
12222;SDS011;6174;49.058;8.524;2023-02-24T14:13:58;25.33;;;17.23;;
12222;SDS011;6174;49.058;8.524;2023-02-24T14:16:26;23.43;;;16.03;;
12222;SDS011;6174;49.058;8.524;2023-02-24T14:19:01;25.23;;;17.10;;
12222;SDS011;6174;49.058;8.524;2023-02-24T14:21:30;26.23;;;17.40;;
12222;SDS011;6174;49.058;8.524;2023-02-24T14:23:58;25.00;;;16.73;;
12222;SDS011;6174;49.058;8.524;2023-02-24T14:26:26;21.93;;;15.63;;
12222;SDS011;6174;49.058;8.524;2023-02-24T14:28:56;23.93;;;17.03;;
12222;SDS011;6174;49.058;8.524;2023-02-24T14:31:25;22.93;;;16.17;;
12222;SDS011;6174;49.058;8.524;2023-02-24T14:33:55;21.53;;;16.67;;
12222;SDS011;6174;49.058;8.524;2023-02-24T14:36:27;21.00;;;14.97;;
12222;SDS011;6174;49.058;8.524;2023-02-24T14:39:02;25.13;;;17.33;;
12222;SDS011;6174;49.058;8.524;2023-02-24T14:41:34;24.60;;;16.37;;
12222;SDS011;6174;49.058;8.524;2023-02-24T14:44:04;22.23;;;16.40;;
12222;SDS011;6174;49.058;8.524;2023-02-24T14:46:47;22.17;;;14.83;;
12222;SDS011;6174;49.058;8.524;2023-02-24T14:49:16;21.30;;;15.10;;
12222;SDS011;6174;49.058;8.524;2023-02-24T14:51:46;22.97;;;16.93;;
12222;SDS011;6174;49.058;8.524;2023-02-24T14:54:21;20.90;;;14.43;;
12222;SDS011;6174;49.058;8.524;2023-02-24T14:56:54;22.10;;;15.90;;
12222;SDS011;6174;49.058;8.524;2023-02-24T14:59:22;23.37;;;16.80;;
12222;SDS011;6174;49.058;8.524;2023-02-24T15:01:54;21.97;;;15.37;;
12222;SDS011;6174;49.058;8.524;2023-02-24T15:04:25;23.33;;;16.67;;
12222;SDS011;6174;49.058;8.524;2023-02-24T15:07:00;25.17;;;17.37;;
12222;SDS011;6174;49.058;8.524;2023-02-24T15:09:32;20.20;;;14.90;;
12222;SDS011;6174;49.058;8.524;2023-02-24T15:12:18;19.13;;;15.00;;
12222;SDS011;6174;49.058;8.524;2023-02-24T15:14:49;19.13;;;14.30;;
12222;SDS011;6174;49.058;8.524;2023-02-24T15:17:18;18.80;;;14.57;;
12222;SDS011;6174;49.058;8.524;2023-02-24T15:19:47;18.00;;;14.03;;
12222;SDS011;6174;49.058;8.524;2023-02-24T15:22:21;17.83;;;13.07;;
12222;SDS011;6174;49.058;8.524;2023-02-24T15:24:50;19.70;;;14.63;;
12222;SDS011;6174;49.058;8.524;2023-02-24T15:27:29;17.60;;;13.53;;
12222;SDS011;6174;49.058;8.524;2023-02-24T15:29:57;17.73;;;12.97;;
12222;SDS011;6174;49.058;8.524;2023-02-24T15:32:27;16.20;;;12.27;;
12222;SDS011;6174;49.058;8.524;2023-02-24T15:35:05;18.40;;;12.37;;
12222;SDS011;6174;49.058;8.524;2023-02-24T15:37:49;17.33;;;12.17;;
12222;SDS011;6174;49.058;8.524;2023-02-24T15:40:21;17.10;;;11.47;;
12222;SDS011;6174;49.058;8.524;2023-02-24T15:42:50;15.43;;;11.47;;
12222;SDS011;6174;49.058;8.524;2023-02-24T15:45:22;15.97;;;11.00;;
12222;SDS011;6174;49.058;8.524;2023-02-24T15:47:52;17.20;;;11.97;;
12222;SDS011;6174;49.058;8.524;2023-02-24T15:50:20;16.20;;;11.33;;
12222;SDS011;6174;49.058;8.524;2023-02-24T15:52:52;16.80;;;11.67;;
12222;SDS011;6174;49.058;8.524;2023-02-24T15:55:25;15.80;;;11.63;;
12222;SDS011;6174;49.058;8.524;2023-02-24T15:57:58;15.47;;;11.87;;
12222;SDS011;6174;49.058;8.524;2023-02-24T16:00:26;15.73;;;11.83;;
12222;SDS011;6174;49.058;8.524;2023-02-24T16:02:55;15.20;;;11.50;;
12222;SDS011;6174;49.058;8.524;2023-02-24T16:05:22;15.93;;;11.93;;
12222;SDS011;6174;49.058;8.524;2023-02-24T16:07:51;16.03;;;12.73;;
12222;SDS011;6174;49.058;8.524;2023-02-24T16:10:19;17.47;;;12.67;;
12222;SDS011;6174;49.058;8.524;2023-02-24T16:12:49;18.93;;;13.17;;
12222;SDS011;6174;49.058;8.524;2023-02-24T16:15:19;15.57;;;11.63;;
12222;SDS011;6174;49.058;8.524;2023-02-24T16:17:49;17.40;;;12.73;;
12222;SDS011;6174;49.058;8.524;2023-02-24T16:20:18;18.00;;;12.90;;
12222;SDS011;6174;49.058;8.524;2023-02-24T16:22:56;16.50;;;12.23;;
12222;SDS011;6174;49.058;8.524;2023-02-24T16:25:25;17.73;;;12.47;;
12222;SDS011;6174;49.058;8.524;2023-02-24T16:27:53;16.73;;;11.37;;
12222;SDS011;6174;49.058;8.524;2023-02-24T16:30:22;18.20;;;12.77;;
12222;SDS011;6174;49.058;8.524;2023-02-24T16:32:51;16.63;;;11.73;;
12222;SDS011;6174;49.058;8.524;2023-02-24T16:35:18;15.67;;;12.53;;
12222;SDS011;6174;49.058;8.524;2023-02-24T16:37:45;15.27;;;11.97;;
12222;SDS011;6174;49.058;8.524;2023-02-24T16:40:20;14.10;;;11.70;;
12222;SDS011;6174;49.058;8.524;2023-02-24T16:42:52;18.60;;;12.53;;
12222;SDS011;6174;49.058;8.524;2023-02-24T16:45:20;15.63;;;12.37;;
12222;SDS011;6174;49.058;8.524;2023-02-24T16:47:48;16.00;;;12.00;;
12222;SDS011;6174;49.058;8.524;2023-02-24T16:50:20;16.93;;;12.37;;
12222;SDS011;6174;49.058;8.524;2023-02-24T16:52:48;15.07;;;11.77;;
12222;SDS011;6174;49.058;8.524;2023-02-24T16:55:16;14.40;;;12.17;;
12222;SDS011;6174;49.058;8.524;2023-02-24T16:57:44;19.20;;;12.17;;
12222;SDS011;6174;49.058;8.524;2023-02-24T17:00:14;17.77;;;12.43;;
12222;SDS011;6174;49.058;8.524;2023-02-24T17:02:47;14.67;;;12.23;;
12222;SDS011;6174;49.058;8.524;2023-02-24T17:05:16;16.27;;;12.17;;
12222;SDS011;6174;49.058;8.524;2023-02-24T17:07:44;16.17;;;12.07;;
12222;SDS011;6174;49.058;8.524;2023-02-24T17:10:12;14.47;;;11.47;;
12222;SDS011;6174;49.058;8.524;2023-02-24T17:12:39;15.13;;;11.40;;
12222;SDS011;6174;49.058;8.524;2023-02-24T17:15:10;15.90;;;12.03;;
12222;SDS011;6174;49.058;8.524;2023-02-24T17:17:39;16.73;;;12.73;;
12222;SDS011;6174;49.058;8.524;2023-02-24T17:20:07;15.43;;;11.37;;
12222;SDS011;6174;49.058;8.524;2023-02-24T17:22:36;15.03;;;11.30;;
12222;SDS011;6174;49.058;8.524;2023-02-24T17:25:03;15.67;;;11.23;;
12222;SDS011;6174;49.058;8.524;2023-02-24T17:27:31;15.23;;;11.27;;
12222;SDS011;6174;49.058;8.524;2023-02-24T17:29:58;16.77;;;11.53;;
12222;SDS011;6174;49.058;8.524;2023-02-24T17:32:26;14.67;;;10.73;;
12222;SDS011;6174;49.058;8.524;2023-02-24T17:34:53;14.30;;;10.90;;
12222;SDS011;6174;49.058;8.524;2023-02-24T17:37:20;15.70;;;11.63;;
12222;SDS011;6174;49.058;8.524;2023-02-24T17:39:47;16.00;;;11.43;;
12222;SDS011;6174;49.058;8.524;2023-02-24T17:42:13;15.70;;;11.33;;
12222;SDS011;6174;49.058;8.524;2023-02-24T17:44:40;13.93;;;10.47;;
12222;SDS011;6174;49.058;8.524;2023-02-24T17:47:07;18.30;;;12.03;;
12222;SDS011;6174;49.058;8.524;2023-02-24T17:49:37;14.17;;;10.73;;
12222;SDS011;6174;49.058;8.524;2023-02-24T17:52:04;13.93;;;10.37;;
12222;SDS011;6174;49.058;8.524;2023-02-24T17:54:31;15.27;;;10.27;;
12222;SDS011;6174;49.058;8.524;2023-02-24T17:56:58;15.20;;;11.17;;
12222;SDS011;6174;49.058;8.524;2023-02-24T17:59:25;13.43;;;10.03;;
12222;SDS011;6174;49.058;8.524;2023-02-24T18:01:51;14.70;;;10.73;;
12222;SDS011;6174;49.058;8.524;2023-02-24T18:04:18;18.47;;;11.03;;
12222;SDS011;6174;49.058;8.524;2023-02-24T18:06:46;15.33;;;10.53;;
12222;SDS011;6174;49.058;8.524;2023-02-24T18:09:14;14.97;;;11.10;;
12222;SDS011;6174;49.058;8.524;2023-02-24T18:11:41;13.90;;;10.53;;
12222;SDS011;6174;49.058;8.524;2023-02-24T18:14:09;15.37;;;11.27;;
12222;SDS011;6174;49.058;8.524;2023-02-24T18:16:36;15.47;;;10.87;;
12222;SDS011;6174;49.058;8.524;2023-02-24T18:19:03;11.90;;;10.57;;
12222;SDS011;6174;49.058;8.524;2023-02-24T18:21:30;15.23;;;10.60;;
12222;SDS011;6174;49.058;8.524;2023-02-24T18:23:58;16.07;;;11.10;;
12222;SDS011;6174;49.058;8.524;2023-02-24T18:26:25;15.37;;;11.00;;
12222;SDS011;6174;49.058;8.524;2023-02-24T18:28:52;15.40;;;11.27;;
12222;SDS011;6174;49.058;8.524;2023-02-24T18:31:20;14.33;;;10.80;;
12222;SDS011;6174;49.058;8.524;2023-02-24T18:33:48;14.80;;;10.60;;
12222;SDS011;6174;49.058;8.524;2023-02-24T18:36:15;15.10;;;10.97;;
12222;SDS011;6174;49.058;8.524;2023-02-24T18:38:42;14.63;;;11.37;;
12222;SDS011;6174;49.058;8.524;2023-02-24T18:41:12;15.13;;;10.80;;
12222;SDS011;6174;49.058;8.524;2023-02-24T18:43:40;14.37;;;11.63;;
12222;SDS011;6174;49.058;8.524;2023-02-24T18:46:09;17.90;;;12.13;;
12222;SDS011;6174;49.058;8.524;2023-02-24T18:48:37;15.67;;;11.00;;
12222;SDS011;6174;49.058;8.524;2023-02-24T18:51:05;17.00;;;12.03;;
12222;SDS011;6174;49.058;8.524;2023-02-24T18:53:33;16.57;;;12.67;;
12222;SDS011;6174;49.058;8.524;2023-02-24T18:56:01;20.07;;;12.57;;
12222;SDS011;6174;49.058;8.524;2023-02-24T18:58:32;17.33;;;10.93;;
12222;SDS011;6174;49.058;8.524;2023-02-24T19:01:02;17.33;;;12.53;;
12222;SDS011;6174;49.058;8.524;2023-02-24T19:03:35;16.30;;;12.10;;
12222;SDS011;6174;49.058;8.524;2023-02-24T19:06:01;17.07;;;12.27;;
12222;SDS011;6174;49.058;8.524;2023-02-24T19:08:28;19.40;;;12.60;;
12222;SDS011;6174;49.058;8.524;2023-02-24T19:10:55;14.83;;;11.63;;
12222;SDS011;6174;49.058;8.524;2023-02-24T19:13:21;17.57;;;12.87;;
12222;SDS011;6174;49.058;8.524;2023-02-24T19:15:50;17.40;;;11.97;;
12222;SDS011;6174;49.058;8.524;2023-02-24T19:18:17;15.23;;;11.47;;
12222;SDS011;6174;49.058;8.524;2023-02-24T19:20:43;16.63;;;11.37;;
12222;SDS011;6174;49.058;8.524;2023-02-24T19:23:10;16.20;;;11.20;;
12222;SDS011;6174;49.058;8.524;2023-02-24T19:25:37;17.20;;;12.20;;
12222;SDS011;6174;49.058;8.524;2023-02-24T19:28:04;14.07;;;11.57;;
12222;SDS011;6174;49.058;8.524;2023-02-24T19:30:30;15.13;;;12.13;;
12222;SDS011;6174;49.058;8.524;2023-02-24T19:32:59;16.43;;;11.47;;
12222;SDS011;6174;49.058;8.524;2023-02-24T19:35:25;15.00;;;11.70;;
12222;SDS011;6174;49.058;8.524;2023-02-24T19:37:52;16.07;;;12.20;;
12222;SDS011;6174;49.058;8.524;2023-02-24T19:40:19;15.17;;;11.20;;
12222;SDS011;6174;49.058;8.524;2023-02-24T19:42:45;15.57;;;11.77;;
12222;SDS011;6174;49.058;8.524;2023-02-24T19:45:15;16.17;;;11.93;;
12222;SDS011;6174;49.058;8.524;2023-02-24T19:47:41;14.97;;;11.67;;
12222;SDS011;6174;49.058;8.524;2023-02-24T19:50:11;15.03;;;11.73;;
12222;SDS011;6174;49.058;8.524;2023-02-24T19:52:39;16.00;;;12.60;;
12222;SDS011;6174;49.058;8.524;2023-02-24T19:55:07;15.83;;;11.83;;
12222;SDS011;6174;49.058;8.524;2023-02-24T19:57:35;16.37;;;11.57;;
12222;SDS011;6174;49.058;8.524;2023-02-24T20:00:03;19.40;;;12.23;;
12222;SDS011;6174;49.058;8.524;2023-02-24T20:02:30;18.97;;;12.27;;